Create Tblcommutelog Verified Points Advance Search
| # | Trip ID | Id Commuter | Trip Date | Trip Num | Current Lat | Current Lng | Delta Distance | Current Time | Activity | Activity Confidence | Current Speed | |
|---|---|---|---|---|---|---|---|---|---|---|---|---|
| 72201 | 250821_787489_16655982_1812 | 787489 | (not set) | (not set) | 38.923854708927 | -77.196656071188 | 9.4879 | 2025-08-21 18:30:08 | unknown | 100 | 12.39639865173 | |
| 72202 | 250821_787489_16655982_1812 | 787489 | (not set) | (not set) | 38.923854708927 | -77.196656071188 | 9.4879 | 2025-08-21 18:30:08 | unknown | 100 | 12.39639865173 | |
| 72203 | 250821_771304_16638458_1733 | 771304 | (not set) | (not set) | 38.899531874644 | -77.003451107366 | 5.8588 | 2025-08-21 18:30:09 | unknown | 100 | 3.7461889903171 | |
| 72204 | 250821_771304_16638458_1733 | 771304 | (not set) | (not set) | 38.899531874644 | -77.003451107366 | 5.8588 | 2025-08-21 18:30:09 | unknown | 100 | 3.7461889903171 | |
| 72205 | 250821_763853_16630707_1701 | 763853 | (not set) | (not set) | 38.914254520916 | -77.426565624066 | 26.7477 | 2025-08-21 18:30:09 | still | 100 | 0 | |
| 72206 | 250821_763853_16630707_1701 | 763853 | (not set) | (not set) | 38.914254520916 | -77.426565624066 | 26.7326 | 2025-08-21 18:30:09 | still | 100 | 0 | |
| 72207 | 250821_772509_16639785_1727 | 772509 | (not set) | (not set) | 38.652178 | -76.991056666667 | 23.9502 | 2025-08-21 18:30:10 | in_vehicle | 100 | 11.314563644979 | |
| 72208 | 250821_784252_16656535_1800 | 784252 | (not set) | (not set) | 39.361175678877 | -77.146836987248 | 28.0143 | 2025-08-21 18:30:14 | in_vehicle | 100 | 13.509526406609 | |
| 72209 | 250821_107574_16653496_1830 | 107574 | (not set) | (not set) | 38.898292024572 | -77.006456874121 | 0 | 2025-08-21 18:30:15 | unknown | 100 | -0.44703925898772 | |
| 72210 | 250821_107574_16653496_1830 | 107574 | (not set) | (not set) | 38.898292024572 | -77.006456874121 | 0 | 2025-08-21 18:30:15 | unknown | 100 | -0.44703925898772 | |
| 72211 | 250821_759494_16513758_1817 | 759494 | (not set) | (not set) | 38.922327322123 | -77.031973334517 | 1.4489 | 2025-08-21 18:30:15 | in_vehicle | 100 | 4.3273400270012 | |
| 72212 | 250821_765830_16632736_1748 | 765830 | (not set) | (not set) | 38.92294111945 | -77.205195210251 | 11.4625 | 2025-08-21 18:30:18 | on_foot | 100 | 0.41127611826871 | |
| 72213 | 250821_765830_16632736_1748 | 765830 | (not set) | (not set) | 38.92294111945 | -77.205195210251 | 11.4625 | 2025-08-21 18:30:18 | on_foot | 100 | 0.41127611826871 | |
| 72214 | 250821_765830_16632736_1748 | 765830 | (not set) | (not set) | 38.92294111945 | -77.205195210251 | 11.4625 | 2025-08-21 18:30:18 | on_foot | 100 | 0.41127611826871 | |
| 72215 | 250821_765830_16632736_1749 | 765830 | (not set) | (not set) | 38.92294111945 | -77.205195210251 | 11.4625 | 2025-08-21 18:30:18 | on_foot | 100 | 0.41127611826871 | |
| 72216 | 250821_787489_16655982_1812 | 787489 | (not set) | (not set) | 38.926595412436 | -77.198843616289 | 9.7107 | 2025-08-21 18:30:21 | unknown | 100 | 11.757132511377 | |
| 72217 | 250821_787489_16655982_1812 | 787489 | (not set) | (not set) | 38.926595412436 | -77.198843616289 | 9.7107 | 2025-08-21 18:30:21 | unknown | 100 | 11.757132511377 | |
| 72218 | 250821_787489_16655982_1812 | 787489 | (not set) | (not set) | 38.926595412436 | -77.198843616289 | 9.7107 | 2025-08-21 18:30:21 | unknown | 100 | 11.757132511377 | |
| 72219 | 250821_787384_16655865_1745 | 787384 | (not set) | (not set) | 39.119288650201 | -77.163953566283 | 18.4204 | 2025-08-21 18:30:23 | in_vehicle | 100 | 3.64336996075 | |
| 72220 | 250821_772509_16639785_1727 | 772509 | (not set) | (not set) | 38.652030333333 | -76.987491666667 | 24.1433 | 2025-08-21 18:30:23 | in_vehicle | 100 | 11.336915607929 |